createdAt,value
2018-12-19T00:03:03.552Z,16.43
2018-12-19T00:08:07.171Z,13.60
2018-12-19T00:13:14.769Z,21.43
2018-12-19T00:18:18.293Z,15.43
2018-12-19T00:23:21.720Z,19.03
2018-12-19T00:28:25.324Z,18.93
2018-12-19T00:33:28.780Z,18.60
2018-12-19T00:38:32.186Z,20.17
2018-12-19T00:43:35.876Z,19.97
2018-12-19T00:48:39.431Z,16.63
2018-12-19T00:53:43.108Z,19.93
2018-12-19T00:58:46.549Z,19.27
2018-12-19T01:03:50.024Z,15.03
2018-12-19T01:08:54.059Z,17.80
2018-12-19T01:13:57.519Z,23.00
2018-12-19T01:19:01.094Z,21.40
2018-12-19T01:24:04.908Z,20.43
2018-12-19T01:29:08.525Z,17.30
2018-12-19T01:34:13.257Z,18.50
2018-12-19T01:39:22.350Z,17.77
2018-12-19T01:44:22.544Z,19.23
2018-12-19T01:49:26.073Z,20.17
2018-12-19T01:54:29.567Z,18.60
2018-12-19T01:59:33.032Z,20.43
2018-12-19T02:04:36.447Z,22.53
2018-12-19T02:09:39.953Z,21.17
2018-12-19T02:14:43.360Z,24.10
2018-12-19T02:19:47.053Z,20.27
2018-12-19T02:24:50.728Z,22.17
2018-12-19T02:29:54.376Z,18.47
2018-12-19T02:34:57.813Z,22.40
2018-12-19T02:40:01.253Z,23.90
2018-12-19T02:45:05.064Z,19.27
2018-12-19T02:50:08.663Z,23.47
2018-12-19T02:55:12.261Z,20.50
2018-12-19T03:00:15.688Z,23.70
2018-12-19T03:05:19.292Z,26.23
2018-12-19T03:10:22.704Z,25.03
2018-12-19T03:15:26.227Z,27.63
2018-12-19T03:20:30.088Z,26.47
2018-12-19T03:25:33.549Z,18.70
2018-12-19T03:30:37.108Z,22.77
2018-12-19T03:35:40.829Z,22.63
2018-12-19T03:40:44.245Z,22.67
2018-12-19T03:45:47.746Z,21.13
2018-12-19T03:50:51.332Z,18.73
2018-12-19T03:55:54.796Z,24.53
2018-12-19T04:00:58.307Z,22.23
2018-12-19T04:06:01.752Z,20.30
2018-12-19T04:11:05.171Z,23.70
2018-12-19T04:16:08.585Z,20.50
2018-12-19T04:21:12.268Z,20.47
2018-12-19T04:26:15.689Z,18.97
2018-12-19T04:31:19.275Z,22.83
2018-12-19T04:36:22.676Z,23.83
2018-12-19T04:41:26.368Z,22.40
2018-12-19T04:46:29.836Z,19.83
2018-12-19T04:51:33.476Z,21.80
2018-12-19T04:56:36.968Z,23.00
2018-12-19T05:01:40.511Z,23.57
2018-12-19T05:06:43.911Z,22.30
2018-12-19T05:11:47.780Z,22.60
2018-12-19T05:16:51.321Z,21.93
2018-12-19T05:21:55.005Z,25.07
2018-12-19T05:26:58.516Z,27.60
2018-12-19T05:32:01.984Z,25.67
2018-12-19T05:37:05.627Z,23.30
2018-12-19T05:42:09.268Z,23.13
2018-12-19T05:47:13.144Z,19.97
2018-12-19T05:52:16.709Z,22.67
2018-12-19T05:57:20.436Z,23.57
2018-12-19T06:02:23.988Z,17.43
2018-12-19T06:07:27.613Z,20.07
2018-12-19T06:12:31.205Z,18.93
2018-12-19T06:17:34.724Z,22.03
2018-12-19T06:22:38.504Z,20.93
2018-12-19T06:27:42.061Z,17.47
2018-12-19T06:32:45.861Z,21.80
2018-12-19T06:37:49.460Z,13.47
2018-12-19T06:42:52.936Z,20.20
2018-12-19T06:47:56.449Z,21.87
2018-12-19T06:52:59.860Z,22.03
2018-12-19T06:58:03.268Z,26.30
2018-12-19T07:03:06.686Z,28.77
2018-12-19T07:08:10.099Z,20.10
2018-12-19T07:13:13.633Z,22.27
2018-12-19T07:18:17.104Z,22.27
2018-12-19T07:23:20.736Z,20.33
2018-12-19T07:28:24.200Z,21.27
2018-12-19T07:33:27.748Z,21.80
2018-12-19T07:38:31.276Z,25.80
2018-12-19T07:43:34.788Z,22.67
2018-12-19T07:48:38.528Z,23.90
2018-12-19T07:53:42.024Z,27.37
2018-12-19T07:58:45.596Z,24.43
2018-12-19T08:03:49.005Z,24.40
2018-12-19T08:08:52.620Z,24.47
2018-12-19T08:13:56.310Z,22.83
2018-12-19T08:18:59.789Z,26.00
2018-12-19T08:24:03.580Z,21.00
2018-12-19T08:29:07.130Z,24.07
2018-12-19T08:34:10.651Z,24.13
2018-12-19T08:39:14.487Z,23.40
2018-12-19T08:44:17.916Z,25.67
2018-12-19T08:49:21.329Z,23.67
2018-12-19T08:54:25.028Z,23.23
2018-12-19T08:59:28.681Z,21.13
2018-12-19T09:04:32.303Z,26.33
2018-12-19T09:09:35.717Z,23.00
2018-12-19T09:14:39.167Z,25.77
2018-12-19T09:19:42.800Z,22.67
2018-12-19T09:24:46.251Z,23.07
2018-12-19T09:29:49.711Z,22.70
2018-12-19T09:34:53.130Z,26.23
2018-12-19T09:39:56.575Z,22.63
2018-12-19T09:44:59.975Z,24.90
2018-12-19T09:50:04.088Z,22.90
2018-12-19T09:55:07.620Z,25.00
2018-12-19T10:00:17.484Z,22.47
2018-12-19T10:05:20.980Z,22.90
2018-12-19T10:10:24.477Z,19.63
2018-12-19T10:15:28.056Z,20.93
2018-12-19T10:20:31.516Z,24.60
2018-12-19T10:25:35.188Z,22.87
2018-12-19T10:30:47.095Z,22.37
2018-12-19T10:35:51.348Z,25.53
2018-12-19T10:40:54.763Z,21.83
2018-12-19T10:45:58.308Z,23.07
2018-12-19T10:51:01.713Z,23.63
2018-12-19T10:56:05.292Z,24.03
2018-12-19T11:01:09.004Z,19.37
2018-12-19T11:06:12.480Z,21.37
2018-12-19T11:11:15.984Z,21.93
2018-12-19T11:16:19.476Z,20.53
2018-12-19T11:21:23.000Z,25.17
2018-12-19T11:26:27.659Z,20.23
2018-12-19T11:31:31.156Z,20.23
2018-12-19T11:36:34.668Z,23.07
2018-12-19T11:41:39.229Z,20.47
2018-12-19T11:46:42.980Z,25.63
2018-12-19T11:51:46.401Z,19.50
2018-12-19T11:56:49.859Z,17.57
2018-12-19T12:01:53.432Z,18.70
2018-12-19T12:06:56.844Z,14.60
2018-12-19T12:12:00.287Z,18.03
2018-12-19T12:17:03.711Z,18.13
2018-12-19T12:22:07.284Z,17.20
2018-12-19T12:27:11.000Z,15.13
2018-12-19T12:32:14.551Z,16.07
2018-12-19T12:37:18.020Z,17.57
2018-12-19T12:42:21.640Z,13.70
2018-12-19T12:47:25.652Z,14.73
2018-12-19T12:52:29.132Z,13.20
2018-12-19T12:57:32.761Z,14.43
2018-12-19T13:02:36.224Z,17.13
2018-12-19T13:07:39.780Z,14.47
2018-12-19T13:12:43.461Z,13.27
2018-12-19T13:17:47.579Z,16.77
2018-12-19T13:22:51.420Z,22.03
2018-12-19T13:27:55.679Z,11.67
2018-12-19T13:32:59.104Z,20.20
2018-12-19T13:38:02.704Z,13.27
2018-12-19T13:43:06.382Z,14.90
2018-12-19T13:48:11.099Z,19.27
2018-12-19T13:53:14.579Z,19.07
2018-12-19T13:58:19.076Z,13.83
2018-12-19T14:03:22.801Z,16.67
2018-12-19T14:08:26.613Z,14.63
2018-12-19T14:13:30.289Z,14.90
2018-12-19T14:18:33.748Z,16.40
2018-12-19T14:23:37.256Z,16.57
2018-12-19T14:28:40.996Z,18.53
2018-12-19T14:33:44.881Z,19.33
2018-12-19T14:38:48.624Z,15.57
2018-12-19T14:43:52.135Z,30.47
2018-12-19T14:48:55.863Z,18.40
2018-12-19T14:53:59.416Z,33.87
2018-12-19T14:59:02.840Z,16.93
2018-12-19T15:04:06.317Z,15.83
2018-12-19T15:09:09.816Z,17.57
2018-12-19T15:14:13.392Z,18.10
2018-12-19T15:19:16.952Z,18.43
2018-12-19T15:24:20.540Z,16.87
2018-12-19T15:29:24.384Z,21.40
2018-12-19T15:34:27.988Z,18.37
2018-12-19T15:39:31.392Z,29.10
2018-12-19T15:44:34.943Z,18.60
2018-12-19T15:49:38.372Z,17.83
2018-12-19T15:54:41.928Z,15.30
2018-12-19T15:59:45.452Z,21.50
2018-12-19T16:04:48.956Z,19.70
2018-12-19T16:09:52.389Z,21.67
2018-12-19T16:14:55.904Z,18.73
2018-12-19T16:19:59.420Z,17.70
2018-12-19T16:25:02.973Z,22.13
2018-12-19T16:30:08.044Z,17.60
2018-12-19T16:35:11.466Z,16.57
2018-12-19T16:40:15.124Z,18.00
2018-12-19T16:45:18.532Z,22.90
2018-12-19T16:50:22.052Z,17.57
2018-12-19T16:55:25.468Z,19.20
2018-12-19T17:00:28.877Z,22.57
2018-12-19T17:05:32.435Z,20.07
2018-12-19T17:10:35.851Z,17.43
2018-12-19T17:15:39.328Z,19.43
2018-12-19T17:20:42.736Z,22.20
2018-12-19T17:25:47.761Z,22.03
2018-12-19T17:30:51.491Z,21.07
2018-12-19T17:35:54.997Z,31.50
2018-12-19T17:40:58.413Z,30.13
2018-12-19T17:46:01.812Z,26.43
2018-12-19T17:51:05.340Z,31.73
2018-12-19T17:56:08.773Z,31.10
2018-12-19T18:01:12.532Z,27.07
2018-12-19T18:06:15.932Z,27.87
2018-12-19T18:11:19.404Z,39.47
2018-12-19T18:16:22.885Z,52.60
2018-12-19T18:21:26.480Z,28.33
2018-12-19T18:26:30.011Z,24.27
2018-12-19T18:31:33.495Z,26.03
2018-12-19T18:36:36.900Z,26.27
2018-12-19T18:41:40.503Z,22.20
2018-12-19T18:46:43.956Z,25.03
2018-12-19T18:51:47.582Z,25.87
2018-12-19T18:56:51.420Z,33.30
2018-12-19T19:01:54.978Z,25.40
2018-12-19T19:06:58.571Z,28.03
2018-12-19T19:12:02.199Z,24.93
2018-12-19T19:17:06.380Z,25.50
2018-12-19T19:22:10.540Z,26.07
2018-12-19T19:27:14.077Z,23.00
2018-12-19T19:32:18.794Z,24.87
2018-12-19T19:37:22.480Z,23.47
2018-12-19T19:42:26.066Z,27.13
2018-12-19T19:47:29.648Z,24.17
2018-12-19T19:52:33.199Z,26.60
2018-12-19T19:57:36.708Z,25.37
2018-12-19T20:02:40.857Z,22.50
2018-12-19T20:07:44.289Z,23.13
2018-12-19T20:12:48.059Z,23.17
2018-12-19T20:17:51.965Z,25.70
2018-12-19T20:22:55.384Z,20.03
2018-12-19T20:27:59.821Z,22.67
2018-12-19T20:33:08.073Z,24.03
2018-12-19T20:38:11.748Z,25.67
2018-12-19T20:43:15.197Z,21.90
2018-12-19T20:48:28.261Z,26.20
2018-12-19T20:53:32.509Z,23.70
2018-12-19T20:58:36.016Z,23.33
2018-12-19T21:03:39.688Z,24.10
2018-12-19T21:08:43.100Z,21.93
2018-12-19T21:13:46.994Z,23.77
2018-12-19T21:18:52.394Z,29.27
2018-12-19T21:23:55.899Z,25.53
2018-12-19T21:28:59.500Z,32.80
2018-12-19T21:34:03.036Z,40.47
2018-12-19T21:39:09.751Z,32.17
2018-12-19T21:44:13.492Z,30.70
2018-12-19T21:49:17.856Z,29.07
2018-12-19T21:54:21.367Z,26.97
2018-12-19T21:59:25.453Z,31.20
2018-12-19T22:04:28.998Z,32.77
2018-12-19T22:09:32.765Z,31.30
2018-12-19T22:14:36.618Z,31.60
2018-12-19T22:19:40.336Z,28.80
2018-12-19T22:24:43.879Z,28.00
2018-12-19T22:29:47.500Z,27.30
2018-12-19T22:34:51.281Z,25.80
2018-12-19T22:39:55.071Z,30.93
2018-12-19T22:44:58.605Z,30.13
2018-12-19T22:50:03.125Z,33.70
2018-12-19T22:55:06.754Z,32.20
2018-12-19T23:00:16.903Z,29.90
2018-12-19T23:05:25.835Z,30.43
2018-12-19T23:10:30.043Z,31.33
2018-12-19T23:15:33.653Z,27.17
2018-12-19T23:20:37.201Z,28.67
2018-12-19T23:25:40.792Z,29.60
2018-12-19T23:30:44.405Z,35.13
2018-12-19T23:35:48.370Z,30.93
2018-12-19T23:40:52.201Z,33.97
2018-12-19T23:45:55.694Z,27.43
2018-12-19T23:50:59.207Z,34.30
2018-12-19T23:56:02.772Z,29.13
